Time;durP1;ratioP1;P1;durP2;ratioP2;P2;SDS_P1;SDS_P2;PMS_P1;PMS_P2;Temp;Humidity;BMP_temperature;BMP_pressure;BME280_temperature;BME280_humidity;BME280_pressure;Samples;Min_cycle;Max_cycle;Signal;HPM_P1;HPM_P2
2021/01/04 00:02:24;;;;;;;55.50;20.08;;;-1.60;99.90;;;;;;21083498;28;20444;-78
2021/01/04 00:12:28;;;;;;;54.40;20.52;;;-1.50;99.90;;;;;;21083257;28;20032;-78
2021/01/04 00:22:59;;;;;;;64.55;22.33;;;-1.60;99.90;;;;;;21088729;28;20036;-78
2021/01/04 00:33:06;;;;;;;;;;;-1.80;99.90;;;;;;21094463;28;20028;-79
2021/01/04 00:43:14;;;;;;;54.05;18.77;;;-1.90;99.90;;;;;;21097274;28;19973;-79
2021/01/04 00:53:21;;;;;;;49.00;19.73;;;-1.90;99.90;;;;;;21095468;28;20494;-79
2021/01/04 01:03:24;;;;;;;50.72;19.55;;;-1.90;99.90;;;;;;21112864;28;20111;-79
2021/01/04 01:13:28;;;;;;;44.95;18.17;;;-1.90;99.90;;;;;;21167046;28;20478;-79
2021/01/04 01:23:29;;;;;;;43.22;17.80;;;-2.00;99.90;;;;;;21088949;28;20028;-79
2021/01/04 01:34:04;;;;;;;49.45;17.98;;;-1.80;99.90;;;;;;21089953;28;20056;-79
2021/01/04 01:44:08;;;;;;;54.92;19.80;;;-1.90;99.90;;;;;;21088341;28;20035;-79
2021/01/04 01:54:32;;;;;;;68.85;21.88;;;-1.70;99.90;;;;;;21083350;28;20431;-78
2021/01/04 02:04:56;;;;;;;71.30;21.58;;;-1.70;99.90;;;;;;21116274;28;20032;-79
2021/01/04 02:15:08;;;;;;;61.42;22.30;;;-1.70;99.90;;;;;;21120325;28;20036;-79
2021/01/04 02:25:09;;;;;;;67.22;20.90;;;-1.50;99.90;;;;;;21074216;28;20107;-78
2021/01/04 02:35:11;;;;;;;74.60;21.23;;;-1.40;99.90;;;;;;21094438;28;20475;-78
2021/01/04 02:45:14;;;;;;;78.57;23.95;;;-1.40;99.90;;;;;;21098185;28;20413;-77
2021/01/04 02:55:25;;;;;;;73.72;22.30;;;-1.50;99.90;;;;;;21066563;28;20475;-78
2021/01/04 03:05:27;;;;;;;75.72;20.40;;;-1.70;99.90;;;;;;21119543;28;20089;-78
2021/01/04 03:15:33;;;;;;;70.35;20.05;;;-1.70;99.90;;;;;;21144737;28;20035;-78
2021/01/04 03:26:00;;;;;;;63.95;21.50;;;-1.60;99.90;;;;;;21082886;28;20119;-78
2021/01/04 03:36:01;;;;;;;49.58;17.73;;;-1.70;99.90;;;;;;21070846;28;20035;-78
2021/01/04 03:46:03;;;;;;;56.60;18.98;;;-1.90;99.90;;;;;;21083185;28;20095;-78
2021/01/04 03:56:04;;;;;;;37.22;13.00;;;-2.10;99.90;;;;;;21093875;28;20101;-78
2021/01/04 04:06:08;;;;;;;43.00;13.77;;;-2.30;99.90;;;;;;21136132;28;20036;-78
2021/01/04 04:16:09;;;;;;;41.47;15.63;;;-2.40;99.90;;;;;;21145600;28;20032;-78
2021/01/04 04:26:22;;;;;;;57.78;17.83;;;-2.40;99.90;;;;;;21094358;28;20534;-78
2021/01/04 04:36:25;;;;;;;73.68;21.75;;;-2.00;99.90;;;;;;21093785;28;20486;-78
2021/01/04 04:46:45;;;;;;;69.97;22.02;;;-1.90;99.90;;;;;;21092497;28;20028;-78
2021/01/04 04:57:05;;;;;;;67.72;18.58;;;-1.80;99.90;;;;;;21089451;28;20047;-78
2021/01/04 05:07:30;;;;;;;67.70;20.52;;;-1.60;99.90;;;;;;21149017;28;20031;-78
2021/01/04 05:17:31;;;;;;;53.80;18.10;;;-1.50;99.90;;;;;;21142761;28;20032;-77
2021/01/04 05:27:41;;;;;;;57.05;17.85;;;-1.20;99.90;;;;;;21091661;28;20043;-78
2021/01/04 05:38:00;;;;;;;53.13;16.00;;;-1.10;99.90;;;;;;21087833;28;20032;-78
2021/01/04 05:48:01;;;;;;;40.15;15.05;;;-1.20;99.90;;;;;;21087079;28;20032;-78
2021/01/04 05:58:16;;;;;;;40.30;15.30;;;-1.20;99.90;;;;;;21087560;28;20042;-78
2021/01/04 06:08:21;;;;;;;47.65;15.57;;;-1.00;99.90;;;;;;21148104;28;20058;-78
2021/01/04 06:18:26;;;;;;;44.65;15.90;;;-1.10;99.90;;;;;;21120376;28;20252;-78
2021/01/04 06:28:28;;;;;;;43.22;15.65;;;-1.00;99.90;;;;;;21086579;28;20024;-79
2021/01/04 06:38:30;;;;;;;53.70;17.80;;;-1.00;99.90;;;;;;21086245;28;20036;-79
2021/01/04 06:48:43;;;;;;;56.22;17.95;;;-1.00;99.90;;;;;;21087378;28;20024;-79
2021/01/04 06:59:16;;;;;;;55.15;17.58;;;-1.00;99.90;;;;;;21117951;28;20033;-80
2021/01/04 07:09:46;;;;;;;54.55;17.52;;;-1.00;99.90;;;;;;21175485;28;20031;-80
2021/01/04 07:19:56;;;;;;;53.20;18.17;;;-0.90;99.90;;;;;;21112448;28;20032;-78
2021/01/04 07:30:19;;;;;;;46.15;15.95;;;-0.90;99.90;;;;;;21103097;28;20620;-79
2021/01/04 07:40:59;;;;;;;51.83;18.35;;;-0.80;99.90;;;;;;21105668;28;20032;-80
2021/01/04 07:51:35;;;;;;;42.17;16.38;;;-0.90;99.90;;;;;;21112468;28;20563;-80
2021/01/04 08:02:05;;;;;;;46.08;17.48;;;-0.80;99.90;;;;;;21106846;28;20026;-80
2021/01/04 08:12:44;;;;;;;55.47;19.85;;;-1.00;99.90;;;;;;21179264;28;20131;-79
2021/01/04 08:22:56;;;;;;;44.22;18.30;;;-0.80;99.90;;;;;;21096845;28;20024;-78
2021/01/04 08:33:15;;;;;;;56.38;20.77;;;-0.60;99.90;;;;;;21100143;28;20028;-80
2021/01/04 08:43:16;;;;;;;53.92;19.13;;;-0.60;99.90;;;;;;21099623;28;20510;-80
2021/01/04 08:53:20;;;;;;;56.42;19.10;;;-0.50;99.90;;;;;;21100697;28;20047;-78
2021/01/04 09:03:22;;;;;;;46.35;19.67;;;-0.30;99.90;;;;;;21114490;28;20481;-78
2021/01/04 09:13:22;;;;;;;44.85;16.92;;;-0.10;99.90;;;;;;21168893;28;20028;-79
2021/01/04 09:23:27;;;;;;;47.22;19.30;;;0.10;99.90;;;;;;21094686;28;20081;-79
2021/01/04 09:33:28;;;;;;;45.72;18.35;;;0.30;99.90;;;;;;21092911;28;20028;-79
2021/01/04 09:43:32;;;;;;;48.42;18.42;;;0.30;99.90;;;;;;21087656;28;20111;-77
2021/01/04 09:53:39;;;;;;;64.55;23.45;;;0.30;99.90;;;;;;21064115;28;20031;-79
2021/01/04 10:03:55;;;;;;;56.30;20.70;;;0.50;99.90;;;;;;21068829;28;20560;-80
2021/01/04 10:14:07;;;;;;;43.53;17.48;;;0.60;99.90;;;;;;21087882;28;20031;-80
2021/01/04 10:24:18;;;;;;;42.88;17.75;;;0.60;99.90;;;;;;21107330;28;20514;-79
2021/01/04 10:34:20;;;;;;;52.23;19.83;;;0.70;99.90;;;;;;21088997;28;20040;-80
2021/01/04 10:44:25;;;;;;;41.95;18.17;;;0.70;99.90;;;;;;21086526;28;20027;-79
2021/01/04 10:54:41;;;;;;;46.13;18.77;;;0.60;99.90;;;;;;21090531;28;20036;-79
2021/01/04 11:04:52;;;;;;;46.10;19.27;;;0.80;99.90;;;;;;21091738;28;20530;-80
2021/01/04 11:14:57;;;;;;;44.93;18.57;;;0.80;99.90;;;;;;21088081;28;20065;-80
2021/01/04 11:24:58;;;;;;;45.20;18.63;;;0.80;99.90;;;;;;21101621;28;20702;-81
2021/01/04 11:35:00;;;;;;;53.50;20.20;;;0.90;99.90;;;;;;21089886;28;20111;-78
2021/01/04 11:45:05;;;;;;;49.25;18.27;;;0.90;99.90;;;;;;21086675;28;20031;-79
2021/01/04 11:55:10;;;;;;;40.50;18.45;;;1.00;99.90;;;;;;21086137;28;20380;-78
2021/01/04 12:05:15;;;;;;;45.42;17.65;;;1.10;99.90;;;;;;21085801;28;20059;-78
2021/01/04 12:15:16;;;;;;;35.47;16.95;;;1.30;99.90;;;;;;21060098;28;20036;-79
2021/01/04 12:25:20;;;;;;;42.63;18.88;;;1.40;99.90;;;;;;20999883;28;20101;-80
2021/01/04 12:35:23;;;;;;;40.03;19.10;;;1.50;99.90;;;;;;20978987;28;20033;-77
2021/01/04 12:45:25;;;;;;;34.70;14.85;;;1.60;99.90;;;;;;21100081;28;20028;-79
2021/01/04 12:55:25;;;;;;;29.73;14.15;;;1.70;99.90;;;;;;21106948;28;20032;-78
2021/01/04 13:05:26;;;;;;;;;;;1.60;99.90;;;;;;21151207;28;20406;-79
2021/01/04 13:15:27;;;;;;;30.15;13.60;;;1.70;99.90;;;;;;21170376;28;19912;-80
2021/01/04 13:25:28;;;;;;;32.70;14.45;;;1.70;99.90;;;;;;21100416;28;20594;-81
2021/01/04 13:35:29;;;;;;;;;;;1.60;99.90;;;;;;21098310;28;20039;-81
2021/01/04 13:45:29;;;;;;;31.42;12.43;;;1.60;99.90;;;;;;21097141;28;20386;-78
2021/01/04 13:55:30;;;;;;;;;;;1.60;99.90;;;;;;21093564;28;20028;-78
2021/01/04 14:05:31;;;;;;;26.50;13.07;;;1.60;99.90;;;;;;21162980;28;19922;-77
2021/01/04 14:15:32;;;;;;;27.92;12.85;;;1.80;99.90;;;;;;21156732;28;20286;-79
2021/01/04 14:25:32;;;;;;;;;;;1.50;99.90;;;;;;21092978;28;20040;-81
2021/01/04 14:35:33;;;;;;;30.23;12.95;;;1.50;99.90;;;;;;21091920;28;19934;-79
2021/01/04 14:45:34;;;;;;;;;;;1.40;99.90;;;;;;21093136;28;20096;-79
2021/01/04 14:55:35;;;;;;;28.40;12.40;;;1.40;99.90;;;;;;21072732;28;19916;-79
2021/01/04 15:05:36;;;;;;;27.50;12.73;;;1.40;99.90;;;;;;21127046;28;20277;-78
2021/01/04 15:15:37;;;;;;;;;;;1.30;99.90;;;;;;21132486;28;20044;-78
2021/01/04 15:25:38;;;;;;;25.77;11.53;;;1.30;99.90;;;;;;21090720;28;19908;-78
2021/01/04 15:35:38;;;;;;;;;;;1.30;99.90;;;;;;21106753;28;20359;-79
2021/01/04 15:45:39;;;;;;;28.47;12.20;;;1.20;99.90;;;;;;21097821;28;19912;-79
2021/01/04 15:55:40;;;;;;;;;;;1.10;99.90;;;;;;21102102;28;20274;-81
2021/01/04 16:05:41;;;;;;;31.03;14.67;;;1.40;99.90;;;;;;21139561;28;19908;-79
2021/01/04 16:15:42;;;;;;;34.35;14.77;;;1.30;99.90;;;;;;21158413;28;20307;-79
2021/01/04 16:25:43;;;;;;;;;;;1.10;99.90;;;;;;21100637;28;20437;-79
2021/01/04 16:35:44;;;;;;;35.20;15.65;;;1.10;99.90;;;;;;21099010;28;19947;-78
2021/01/04 16:45:45;;;;;;;32.08;13.80;;;0.90;99.90;;;;;;21106673;28;20028;-79
2021/01/04 16:55:47;;;;;;;;;;;0.80;99.90;;;;;;21108508;28;20020;-80
2021/01/04 17:05:47;;;;;;;33.10;14.95;;;0.80;99.90;;;;;;21138069;28;20006;-79
2021/01/04 17:15:48;;;;;;;36.92;16.35;;;0.70;99.90;;;;;;21153324;28;20024;-78
2021/01/04 17:25:49;;;;;;;35.95;15.60;;;0.70;99.90;;;;;;21088688;28;20407;-78
2021/01/04 17:35:50;;;;;;;40.83;16.55;;;0.70;99.90;;;;;;21088406;28;20111;-77
2021/01/04 17:45:51;;;;;;;40.40;16.65;;;0.60;99.90;;;;;;21117498;28;20042;-79
2021/01/04 17:55:52;;;;;;;44.10;17.23;;;0.60;99.90;;;;;;21141117;28;20097;-78
2021/01/04 18:05:53;;;;;;;42.55;16.83;;;0.60;99.90;;;;;;21171634;28;20129;-79
2021/01/04 18:15:54;;;;;;;44.42;16.88;;;0.40;99.90;;;;;;21097112;28;20032;-78
2021/01/04 18:25:55;;;;;;;38.28;16.42;;;0.40;99.90;;;;;;20987447;28;20036;-78
2021/01/04 18:35:55;;;;;;;42.45;17.75;;;0.40;99.90;;;;;;21046012;28;20035;-78
2021/01/04 18:45:56;;;;;;;46.50;17.48;;;0.40;99.90;;;;;;21090384;28;20047;-79
2021/01/04 18:55:57;;;;;;;44.55;18.00;;;0.30;99.90;;;;;;21086163;28;20028;-79
2021/01/04 19:05:58;;;;;;;62.85;21.58;;;0.30;99.90;;;;;;21126486;28;20023;-78
2021/01/04 19:15:59;;;;;;;52.58;20.05;;;0.30;99.90;;;;;;21065289;22;20045;-79
2021/01/04 19:26:00;;;;;;;49.03;19.23;;;0.30;99.90;;;;;;20980361;28;20037;-82
2021/01/04 19:36:00;;;;;;;60.67;20.40;;;0.40;99.90;;;;;;21017278;28;20032;-80
2021/01/04 19:46:01;;;;;;;57.33;21.63;;;0.30;99.90;;;;;;21016738;28;20029;-81
2021/01/04 19:56:02;;;;;;;52.75;19.25;;;0.30;99.90;;;;;;21015591;28;20020;-79
2021/01/04 20:06:03;;;;;;;49.75;18.45;;;0.30;99.90;;;;;;21013890;28;20040;-80
2021/01/04 20:16:08;;;;;;;47.95;19.60;;;0.30;99.90;;;;;;21013752;28;20074;-81
2021/01/04 20:26:09;;;;;;;49.67;19.77;;;0.30;99.90;;;;;;21012938;28;20032;-80
2021/01/04 20:36:13;;;;;;;47.53;17.58;;;0.20;99.90;;;;;;21013449;28;20111;-80
2021/01/04 20:46:19;;;;;;;52.22;18.17;;;0.20;99.90;;;;;;21010369;28;20513;-80
2021/01/04 20:56:30;;;;;;;54.78;19.20;;;0.20;99.90;;;;;;21009734;28;20035;-81
2021/01/04 21:06:36;;;;;;;48.47;19.38;;;0.20;99.90;;;;;;20984428;28;20086;-80
2021/01/04 21:16:37;;;;;;;49.67;18.85;;;0.20;99.90;;;;;;20990407;28;20059;-80
2021/01/04 21:26:39;;;;;;;47.60;19.95;;;0.20;99.90;;;;;;21005754;28;20028;-81
2021/01/04 21:36:40;;;;;;;44.38;17.58;;;0.10;99.90;;;;;;20988023;28;20028;-80
2021/01/04 21:46:41;;;;;;;47.38;18.95;;;0.10;99.90;;;;;;21005503;28;20119;-80
2021/01/04 21:56:41;;;;;;;47.05;19.15;;;0.10;99.90;;;;;;20985803;28;20043;-78
2021/01/04 22:06:42;;;;;;;45.47;17.50;;;0.10;99.90;;;;;;20963582;28;20024;-79
2021/01/04 22:16:48;;;;;;;43.83;17.70;;;0.00;99.90;;;;;;20983392;28;20059;-78
2021/01/04 22:27:00;;;;;;;48.20;18.60;;;0.00;99.90;;;;;;20964424;28;20109;-78
2021/01/04 22:37:01;;;;;;;45.35;17.25;;;0.00;99.90;;;;;;20983522;28;20043;-79
2021/01/04 22:47:02;;;;;;;44.75;18.13;;;0.00;99.90;;;;;;20980830;28;20036;-79
2021/01/04 22:57:03;;;;;;;47.05;16.90;;;0.00;99.90;;;;;;20978703;28;20426;-79
2021/01/04 23:07:04;;;;;;;49.65;17.23;;;0.00;99.90;;;;;;20993927;28;20393;-79
2021/01/04 23:17:05;;;;;;;48.88;18.42;;;0.00;99.90;;;;;;21007373;28;20036;-80
2021/01/04 23:27:27;;;;;;;45.22;17.20;;;0.00;99.90;;;;;;20977412;28;20068;-77
2021/01/04 23:37:28;;;;;;;49.05;17.40;;;0.00;99.90;;;;;;20977093;28;20033;-78
2021/01/04 23:47:29;;;;;;;45.92;16.50;;;0.00;99.90;;;;;;20973277;28;20034;-79
2021/01/04 23:57:30;;;;;;;45.97;17.10;;;-0.10;99.90;;;;;;20974493;28;20032;-79
